createdAt,value
2022-08-21T00:00:45.188Z,1.70
2022-08-21T00:01:46.265Z,1.70
2022-08-21T00:02:45.178Z,1.50
2022-08-21T00:03:45.154Z,1.90
2022-08-21T00:04:48.344Z,1.60
2022-08-21T00:05:46.129Z,2.10
2022-08-21T00:06:45.134Z,1.50
2022-08-21T00:07:45.135Z,1.60
2022-08-21T00:08:45.105Z,1.50
2022-08-21T00:09:45.081Z,1.60
2022-08-21T00:10:45.075Z,1.40
2022-08-21T00:11:45.085Z,1.80
2022-08-21T00:12:45.057Z,1.60
2022-08-21T00:13:45.065Z,1.70
2022-08-21T00:14:45.054Z,1.60
2022-08-21T00:15:46.030Z,1.60
2022-08-21T00:16:45.010Z,1.80
2022-08-21T00:17:44.999Z,1.60
2022-08-21T00:18:45.042Z,1.70
2022-08-21T00:19:46.027Z,1.80
2022-08-21T00:20:44.967Z,2.20
2022-08-21T00:21:46.922Z,1.80
2022-08-21T00:22:44.943Z,2.00
2022-08-21T00:23:44.958Z,2.10
2022-08-21T00:24:44.923Z,1.60
2022-08-21T00:25:45.876Z,2.10
2022-08-21T00:26:44.913Z,1.80
2022-08-21T00:27:44.898Z,1.90
2022-08-21T00:28:44.904Z,1.70
2022-08-21T00:29:45.373Z,2.00
2022-08-21T00:30:44.865Z,1.90
2022-08-21T00:31:44.844Z,1.80
2022-08-21T00:32:44.860Z,1.80
2022-08-21T00:33:44.822Z,2.10
2022-08-21T00:34:45.869Z,1.70
2022-08-21T00:35:44.801Z,1.90
2022-08-21T00:36:44.793Z,1.60
2022-08-21T00:37:44.879Z,1.90
2022-08-21T00:38:44.775Z,2.00
2022-08-21T00:39:45.824Z,2.10
2022-08-21T00:40:45.346Z,2.20
2022-08-21T00:41:45.774Z,2.10
2022-08-21T00:42:53.382Z,1.60
2022-08-21T00:43:46.908Z,2.00
2022-08-21T00:44:44.716Z,1.80
2022-08-21T00:45:44.708Z,2.00
2022-08-21T00:46:45.357Z,1.60
2022-08-21T00:47:47.359Z,1.90
2022-08-21T00:48:44.682Z,1.80
2022-08-21T00:49:45.706Z,1.80
2022-08-21T00:50:44.637Z,2.10
2022-08-21T00:51:44.648Z,1.70
2022-08-21T00:52:51.499Z,1.70
2022-08-21T00:53:51.726Z,1.80
2022-08-21T00:54:46.576Z,2.20
2022-08-21T00:55:45.349Z,1.80
2022-08-21T00:56:44.579Z,2.10
2022-08-21T00:57:45.348Z,2.00
2022-08-21T00:58:45.361Z,1.60
2022-08-21T00:59:44.549Z,1.90
2022-08-21T01:00:46.447Z,1.80
2022-08-21T01:01:44.515Z,1.60
2022-08-21T01:02:51.410Z,2.10
2022-08-21T01:03:45.313Z,1.50
2022-08-21T01:04:44.511Z,1.80
2022-08-21T01:05:44.479Z,2.00
2022-08-21T01:06:47.363Z,1.90
2022-08-21T01:07:44.449Z,1.70
2022-08-21T01:08:46.665Z,1.90
2022-08-21T01:09:45.355Z,2.30
2022-08-21T01:10:44.433Z,2.00
2022-08-21T01:11:44.410Z,2.10
2022-08-21T01:12:44.402Z,1.90
2022-08-21T01:13:44.381Z,2.00
2022-08-21T01:14:44.393Z,1.90
2022-08-21T01:15:44.374Z,1.80
2022-08-21T01:16:44.371Z,1.90
2022-08-21T01:17:44.355Z,1.80
2022-08-21T01:18:44.355Z,1.80
2022-08-21T01:19:46.850Z,1.90
2022-08-21T01:20:44.306Z,1.90
2022-08-21T01:21:44.299Z,1.70
2022-08-21T01:22:44.864Z,2.20
2022-08-21T01:23:44.294Z,1.70
2022-08-21T01:24:44.275Z,2.00
2022-08-21T01:25:44.248Z,1.70
2022-08-21T01:26:45.288Z,2.10
2022-08-21T01:27:44.276Z,2.10
2022-08-21T01:28:44.250Z,2.00
2022-08-21T01:29:44.222Z,1.90
2022-08-21T01:30:44.203Z,1.70
2022-08-21T01:31:50.884Z,1.80
2022-08-21T01:32:44.204Z,1.80
2022-08-21T01:33:44.864Z,1.60
2022-08-21T01:34:50.863Z,1.80
2022-08-21T01:35:44.132Z,1.90
2022-08-21T01:36:44.150Z,1.70
2022-08-21T01:37:44.193Z,1.80
2022-08-21T01:38:44.125Z,1.90
2022-08-21T01:39:44.907Z,1.80
2022-08-21T01:40:44.101Z,1.60
2022-08-21T01:41:44.860Z,1.90
2022-08-21T01:42:46.892Z,1.70
2022-08-21T01:43:44.386Z,1.90
2022-08-21T01:44:44.052Z,1.50
2022-08-21T01:45:44.396Z,1.80
2022-08-21T01:46:44.046Z,2.00
2022-08-21T01:47:44.014Z,1.50
2022-08-21T01:48:44.035Z,1.60
2022-08-21T01:49:44.014Z,1.80
2022-08-21T01:50:44.864Z,1.90
2022-08-21T01:51:43.995Z,1.70
2022-08-21T01:52:46.855Z,2.00
2022-08-21T01:53:43.958Z,1.70
2022-08-21T01:54:43.943Z,1.60
2022-08-21T01:55:43.957Z,1.80
2022-08-21T01:56:43.908Z,1.60
2022-08-21T01:57:43.916Z,1.60
2022-08-21T01:58:43.888Z,1.60
2022-08-21T01:59:50.862Z,2.00
2022-08-21T02:00:43.941Z,1.90
2022-08-21T02:01:43.886Z,2.30
2022-08-21T02:02:43.847Z,1.90
2022-08-21T02:03:43.860Z,1.70
2022-08-21T02:04:43.832Z,1.70
2022-08-21T02:05:43.825Z,1.60
2022-08-21T02:06:43.890Z,2.30
2022-08-21T02:07:44.366Z,1.90
2022-08-21T02:08:43.782Z,1.80
2022-08-21T02:09:43.789Z,2.20
2022-08-21T02:10:43.768Z,1.90
2022-08-21T02:11:44.775Z,1.80
2022-08-21T02:12:43.741Z,1.60
2022-08-21T02:13:43.726Z,1.90
2022-08-21T02:14:44.367Z,1.70
2022-08-21T02:15:43.702Z,1.70
2022-08-21T02:16:43.693Z,1.80
2022-08-21T02:17:43.902Z,1.80
2022-08-21T02:18:43.761Z,1.60
2022-08-21T02:19:44.679Z,1.50
2022-08-21T02:20:43.650Z,1.40
2022-08-21T02:21:43.643Z,1.80
2022-08-21T02:22:44.361Z,1.90
2022-08-21T02:23:43.626Z,1.60
2022-08-21T02:24:53.945Z,1.80
2022-08-21T02:25:47.364Z,1.50
2022-08-21T02:26:46.371Z,1.70
2022-08-21T02:27:43.572Z,1.80
2022-08-21T02:28:43.597Z,1.80
2022-08-21T02:29:44.621Z,1.80
2022-08-21T02:30:43.891Z,2.00
2022-08-21T02:31:43.536Z,2.00
2022-08-21T02:32:43.546Z,1.80
2022-08-21T02:33:44.535Z,1.50
2022-08-21T02:35:04.524Z,2.00
2022-08-21T02:35:43.556Z,1.90
2022-08-21T02:36:43.486Z,2.00
2022-08-21T02:37:43.472Z,1.50
2022-08-21T02:38:43.490Z,1.90
2022-08-21T02:39:43.493Z,2.00
2022-08-21T02:40:43.807Z,1.80
2022-08-21T02:41:43.423Z,2.20
2022-08-21T02:42:44.457Z,2.00
2022-08-21T02:43:43.419Z,1.90
2022-08-21T02:44:45.399Z,2.00
2022-08-21T02:45:43.383Z,2.20
2022-08-21T02:46:44.441Z,2.20
2022-08-21T02:47:43.357Z,1.90
2022-08-21T02:48:44.905Z,1.90
2022-08-21T02:49:43.360Z,1.80
2022-08-21T02:50:43.400Z,1.80
2022-08-21T02:51:43.311Z,1.80
2022-08-21T02:52:43.295Z,2.00
2022-08-21T02:53:43.287Z,2.00
2022-08-21T02:54:43.305Z,1.90
2022-08-21T02:55:43.266Z,2.10
2022-08-21T02:56:43.268Z,2.00
2022-08-21T02:57:43.824Z,1.90
2022-08-21T02:58:49.881Z,2.20
2022-08-21T02:59:43.408Z,1.70
2022-08-21T03:00:44.256Z,1.90
2022-08-21T03:01:43.262Z,2.00
2022-08-21T03:02:58.039Z,2.00
2022-08-21T03:03:43.179Z,2.00
2022-08-21T03:04:46.556Z,2.10
2022-08-21T03:05:45.872Z,2.00
2022-08-21T03:06:43.260Z,2.10
2022-08-21T03:07:43.402Z,2.10
2022-08-21T03:08:43.129Z,1.90
2022-08-21T03:09:55.347Z,2.20
2022-08-21T03:10:44.107Z,2.00
2022-08-21T03:11:43.105Z,1.80
2022-08-21T03:12:46.372Z,2.00
2022-08-21T03:13:43.101Z,2.00
2022-08-21T03:14:43.056Z,2.10
2022-08-21T03:15:43.878Z,1.90
2022-08-21T03:16:45.870Z,1.80
2022-08-21T03:17:43.869Z,1.90
2022-08-21T03:18:43.013Z,2.20
2022-08-21T03:19:43.031Z,2.10
2022-08-21T03:20:42.992Z,1.80
2022-08-21T03:21:43.006Z,2.00
2022-08-21T03:22:56.378Z,2.10
2022-08-21T03:23:44.162Z,2.30
2022-08-21T03:24:43.042Z,1.90
2022-08-21T03:25:42.939Z,2.60
2022-08-21T03:26:43.872Z,2.30
2022-08-21T03:27:45.883Z,2.10
2022-08-21T03:28:42.929Z,2.00
2022-08-21T03:29:42.915Z,2.00
2022-08-21T03:30:43.878Z,2.30
2022-08-21T03:31:42.903Z,2.00
2022-08-21T03:32:42.859Z,2.50
2022-08-21T03:33:42.856Z,2.20
2022-08-21T03:34:42.838Z,2.30
2022-08-21T03:35:47.889Z,2.60
2022-08-21T03:36:42.823Z,2.20
2022-08-21T03:37:42.804Z,2.30
2022-08-21T03:38:42.795Z,2.20
2022-08-21T03:39:49.430Z,2.30
2022-08-21T03:40:42.901Z,2.20
2022-08-21T03:41:42.768Z,2.20
2022-08-21T03:42:43.388Z,2.00
2022-08-21T03:43:42.747Z,2.30
2022-08-21T03:44:42.734Z,2.50
2022-08-21T03:45:42.729Z,2.00
2022-08-21T03:46:42.912Z,2.20
2022-08-21T03:47:49.389Z,2.10
2022-08-21T03:48:42.682Z,2.20
2022-08-21T03:49:42.698Z,2.40
2022-08-21T03:50:43.739Z,2.30
2022-08-21T03:51:42.656Z,2.40
2022-08-21T03:52:42.633Z,2.50
2022-08-21T03:53:43.385Z,2.40
2022-08-21T03:54:42.612Z,2.30
2022-08-21T03:55:47.927Z,2.60
2022-08-21T03:56:42.597Z,2.70
2022-08-21T03:57:42.592Z,2.50
2022-08-21T03:58:42.583Z,2.00
2022-08-21T03:59:42.581Z,2.80
2022-08-21T04:00:42.575Z,2.20
2022-08-21T04:01:42.603Z,2.20
2022-08-21T04:02:42.527Z,2.30
2022-08-21T04:03:42.546Z,2.30
2022-08-21T04:04:42.506Z,2.10
2022-08-21T04:05:43.379Z,2.00
2022-08-21T04:06:44.416Z,2.30
2022-08-21T04:07:42.475Z,2.10
2022-08-21T04:08:42.490Z,2.50
2022-08-21T04:09:42.451Z,2.60
2022-08-21T04:10:42.441Z,2.40
2022-08-21T04:11:49.383Z,2.50
2022-08-21T04:12:42.439Z,2.40
2022-08-21T04:13:44.345Z,2.50
2022-08-21T04:14:43.385Z,2.10
2022-08-21T04:15:42.391Z,2.20
2022-08-21T04:16:42.379Z,2.50
2022-08-21T04:17:42.358Z,2.40
2022-08-21T04:18:42.361Z,2.70
2022-08-21T04:19:42.345Z,2.40
2022-08-21T04:20:42.413Z,2.50
2022-08-21T04:21:42.319Z,2.80
2022-08-21T04:22:42.311Z,2.50
2022-08-21T04:23:42.875Z,2.40
2022-08-21T04:24:42.290Z,2.40
2022-08-21T04:25:42.268Z,2.50
2022-08-21T04:26:42.413Z,2.40
2022-08-21T04:27:42.256Z,2.40
2022-08-21T04:28:42.236Z,2.50
2022-08-21T04:29:42.233Z,2.40
2022-08-21T04:30:42.243Z,2.40
2022-08-21T04:31:43.269Z,2.40
2022-08-21T04:32:42.195Z,2.70
2022-08-21T04:33:42.182Z,2.70
2022-08-21T04:34:42.179Z,2.40
2022-08-21T04:35:42.415Z,2.10
2022-08-21T04:36:42.146Z,2.50
2022-08-21T04:37:42.436Z,2.80
2022-08-21T04:38:48.885Z,2.70
2022-08-21T04:39:42.165Z,2.90
2022-08-21T04:40:42.109Z,2.50
2022-08-21T04:41:42.111Z,2.30
2022-08-21T04:42:42.109Z,2.50
2022-08-21T04:43:42.075Z,2.40
2022-08-21T04:44:42.068Z,2.30
2022-08-21T04:45:42.051Z,2.40
2022-08-21T04:46:43.915Z,2.40
2022-08-21T04:47:53.049Z,2.70
2022-08-21T04:48:43.027Z,2.30
2022-08-21T04:49:42.018Z,2.70
2022-08-21T04:50:41.997Z,2.50
2022-08-21T04:51:42.022Z,2.60
2022-08-21T04:52:41.977Z,2.50
2022-08-21T04:53:43.013Z,2.80
2022-08-21T04:54:41.960Z,2.50
2022-08-21T04:55:41.955Z,2.40
2022-08-21T04:56:41.965Z,2.40
2022-08-21T04:57:49.096Z,2.80
2022-08-21T04:58:45.881Z,2.30
2022-08-21T04:59:42.886Z,2.50
2022-08-21T05:00:48.386Z,2.50
2022-08-21T05:01:43.019Z,2.40
2022-08-21T05:02:41.903Z,2.60
2022-08-21T05:03:41.854Z,2.60
2022-08-21T05:04:41.851Z,2.50
2022-08-21T05:05:42.888Z,2.40
2022-08-21T05:06:41.913Z,2.50
2022-08-21T05:07:43.190Z,2.20
2022-08-21T05:08:41.793Z,2.40
2022-08-21T05:09:41.788Z,3.00
2022-08-21T05:10:41.779Z,2.80
2022-08-21T05:11:41.768Z,2.50
2022-08-21T05:12:41.752Z,2.80
2022-08-21T05:13:41.773Z,3.00
2022-08-21T05:14:41.746Z,2.80
2022-08-21T05:15:41.728Z,2.60
2022-08-21T05:17:03.391Z,2.70
2022-08-21T05:17:42.395Z,2.40
2022-08-21T05:18:42.779Z,2.50
2022-08-21T05:19:41.702Z,2.50
2022-08-21T05:20:41.660Z,2.80
2022-08-21T05:21:41.657Z,2.80
2022-08-21T05:22:41.648Z,2.70
2022-08-21T05:23:41.640Z,3.00
2022-08-21T05:24:41.644Z,2.70
2022-08-21T05:25:41.698Z,3.20
2022-08-21T05:26:46.036Z,2.70
2022-08-21T05:27:41.593Z,2.90
2022-08-21T05:28:41.578Z,2.60
2022-08-21T05:29:41.572Z,2.90
2022-08-21T05:30:41.583Z,2.60
2022-08-21T05:31:41.543Z,2.60
2022-08-21T05:32:41.541Z,2.60
2022-08-21T05:33:41.534Z,3.00
2022-08-21T05:34:41.512Z,3.00
2022-08-21T05:35:44.400Z,2.90
2022-08-21T05:36:41.499Z,3.00
2022-08-21T05:37:41.482Z,2.90
2022-08-21T05:38:44.392Z,3.10
2022-08-21T05:40:04.779Z,3.30
2022-08-21T05:40:43.509Z,3.00
2022-08-21T05:41:41.434Z,2.90
2022-08-21T05:42:41.434Z,2.90
2022-08-21T05:43:41.412Z,2.80
2022-08-21T05:44:41.410Z,2.70
2022-08-21T05:45:43.988Z,3.00
2022-08-21T05:46:41.425Z,2.80
2022-08-21T05:47:41.368Z,2.90
2022-08-21T05:48:41.392Z,3.10
2022-08-21T05:49:41.357Z,3.00
2022-08-21T05:50:41.345Z,2.70
2022-08-21T05:51:41.341Z,3.00
2022-08-21T05:52:41.343Z,2.80
2022-08-21T05:53:41.307Z,2.60
2022-08-21T05:54:41.348Z,3.10
2022-08-21T05:55:45.141Z,3.00
2022-08-21T05:56:41.273Z,3.10
2022-08-21T05:57:41.900Z,2.90
2022-08-21T05:58:41.427Z,2.80
2022-08-21T05:59:41.246Z,2.90
2022-08-21T06:00:41.221Z,3.00
2022-08-21T06:01:41.328Z,2.90
2022-08-21T06:02:41.200Z,3.00
2022-08-21T06:03:41.194Z,3.10
2022-08-21T06:04:41.177Z,3.30
2022-08-21T06:05:41.174Z,3.30
2022-08-21T06:06:41.183Z,3.30
2022-08-21T06:07:41.157Z,3.60
2022-08-21T06:08:41.415Z,3.50
2022-08-21T06:09:41.147Z,2.90
2022-08-21T06:10:41.114Z,3.40
2022-08-21T06:11:41.433Z,3.40
2022-08-21T06:12:47.895Z,3.40
2022-08-21T06:13:41.092Z,3.30
2022-08-21T06:14:41.098Z,3.70
2022-08-21T06:15:42.124Z,3.90
2022-08-21T06:16:41.044Z,3.80
2022-08-21T06:17:42.060Z,3.80
2022-08-21T06:18:41.028Z,3.80
2022-08-21T06:19:41.038Z,3.90
2022-08-21T06:20:41.008Z,3.80
2022-08-21T06:21:41.422Z,3.70
2022-08-21T06:22:43.897Z,3.50
2022-08-21T06:23:40.979Z,3.70
2022-08-21T06:24:47.899Z,3.90
2022-08-21T06:25:40.976Z,3.60
2022-08-21T06:26:41.004Z,4.40
2022-08-21T06:27:43.024Z,4.00
2022-08-21T06:28:40.944Z,3.70
2022-08-21T06:29:44.501Z,4.10
2022-08-21T06:30:40.916Z,3.90
2022-08-21T06:31:40.934Z,3.90
2022-08-21T06:32:40.866Z,3.70
2022-08-21T06:33:40.865Z,3.70
2022-08-21T06:34:41.396Z,3.60
2022-08-21T06:35:41.511Z,3.70
2022-08-21T06:36:40.826Z,4.00
2022-08-21T06:37:40.848Z,3.20
2022-08-21T06:38:41.433Z,3.60
2022-08-21T06:39:45.043Z,3.30
2022-08-21T06:40:43.905Z,3.40
2022-08-21T06:41:41.776Z,3.50
2022-08-21T06:42:42.633Z,3.20
2022-08-21T06:43:40.772Z,3.30
2022-08-21T06:44:41.403Z,3.60
2022-08-21T06:45:41.401Z,3.60
2022-08-21T06:46:42.801Z,3.00
2022-08-21T06:47:41.395Z,3.00
2022-08-21T06:48:41.941Z,3.70
2022-08-21T06:49:41.412Z,3.10
2022-08-21T06:50:41.407Z,3.60
2022-08-21T06:51:41.416Z,3.30
2022-08-21T06:52:41.695Z,3.30
2022-08-21T06:53:45.970Z,3.50
2022-08-21T06:54:40.935Z,3.20
2022-08-21T06:55:40.624Z,3.50
2022-08-21T06:56:41.401Z,3.40
2022-08-21T06:57:40.600Z,3.20
2022-08-21T06:58:41.660Z,3.20
2022-08-21T06:59:40.585Z,3.50
2022-08-21T07:00:40.932Z,3.60
2022-08-21T07:01:42.530Z,3.50
2022-08-21T07:02:41.558Z,3.50
2022-08-21T07:03:41.400Z,3.20
2022-08-21T07:04:40.936Z,3.50
2022-08-21T07:05:41.397Z,3.50
2022-08-21T07:06:41.414Z,3.50
2022-08-21T07:07:41.401Z,3.30
2022-08-21T07:08:41.403Z,3.60
2022-08-21T07:09:40.935Z,3.40
2022-08-21T07:10:41.970Z,3.70
2022-08-21T07:11:47.431Z,3.30
2022-08-21T07:12:49.449Z,3.20
2022-08-21T07:13:41.471Z,3.50
2022-08-21T07:14:40.413Z,3.50
2022-08-21T07:15:40.902Z,3.40
2022-08-21T07:16:40.392Z,3.50
2022-08-21T07:17:40.940Z,3.20
2022-08-21T07:18:40.371Z,3.40
2022-08-21T07:19:40.950Z,3.40
2022-08-21T07:20:40.340Z,3.50
2022-08-21T07:21:40.937Z,3.50
2022-08-21T07:22:40.328Z,3.50
2022-08-21T07:23:41.931Z,3.10
2022-08-21T07:24:40.900Z,3.90
2022-08-21T07:25:40.921Z,3.10
2022-08-21T07:26:40.935Z,3.10
2022-08-21T07:27:40.942Z,3.70
2022-08-21T07:28:40.931Z,3.30
2022-08-21T07:29:40.908Z,3.20
2022-08-21T07:30:40.909Z,2.90
2022-08-21T07:31:40.905Z,3.50
2022-08-21T07:32:40.939Z,3.30
2022-08-21T07:33:55.951Z,3.00
2022-08-21T07:34:40.932Z,3.00
2022-08-21T07:35:40.916Z,3.10
2022-08-21T07:36:40.917Z,3.60
2022-08-21T07:37:40.942Z,3.00
2022-08-21T07:38:40.146Z,3.30
2022-08-21T07:39:40.934Z,3.70
2022-08-21T07:40:40.907Z,3.10
2022-08-21T07:41:40.923Z,3.00
2022-08-21T07:42:40.113Z,3.40
2022-08-21T07:43:45.978Z,3.10
2022-08-21T07:44:42.092Z,2.90
2022-08-21T07:45:40.928Z,3.20
2022-08-21T07:46:47.912Z,2.90
2022-08-21T07:47:42.046Z,3.10
2022-08-21T07:48:40.080Z,2.40
2022-08-21T07:49:40.941Z,3.10
2022-08-21T07:50:40.012Z,3.00
2022-08-21T07:51:42.913Z,3.00
2022-08-21T07:52:40.001Z,2.80
2022-08-21T07:53:41.965Z,2.90
2022-08-21T07:54:39.981Z,2.90
2022-08-21T07:55:40.921Z,2.50
2022-08-21T07:56:40.913Z,2.60
2022-08-21T07:57:40.937Z,3.30
2022-08-21T07:58:40.956Z,2.90
2022-08-21T07:59:39.925Z,3.00
2022-08-21T08:00:42.475Z,2.80
2022-08-21T08:01:39.926Z,2.80
2022-08-21T08:02:42.418Z,2.80
2022-08-21T08:03:39.877Z,3.00
2022-08-21T08:04:50.625Z,2.80
2022-08-21T08:05:41.871Z,3.00
2022-08-21T08:06:42.414Z,3.00
2022-08-21T08:07:41.474Z,3.00
2022-08-21T08:08:42.428Z,3.30
2022-08-21T08:09:42.044Z,3.30
2022-08-21T08:10:41.456Z,2.90
2022-08-21T08:11:40.411Z,3.60
2022-08-21T08:12:42.414Z,3.20
2022-08-21T08:13:39.775Z,3.10
2022-08-21T08:14:42.414Z,3.20
2022-08-21T08:15:39.753Z,3.20
2022-08-21T08:16:39.754Z,3.30
2022-08-21T08:17:42.417Z,3.10
2022-08-21T08:18:39.721Z,3.30
2022-08-21T08:19:42.441Z,3.30
2022-08-21T08:20:39.702Z,2.90
2022-08-21T08:21:42.421Z,3.30
2022-08-21T08:22:50.071Z,3.10
2022-08-21T08:23:43.466Z,3.00
2022-08-21T08:24:39.662Z,3.20
2022-08-21T08:25:40.995Z,3.30
2022-08-21T08:26:39.644Z,3.90
2022-08-21T08:27:43.463Z,3.00
2022-08-21T08:28:39.619Z,3.10
2022-08-21T08:29:41.720Z,3.00
2022-08-21T08:30:39.734Z,3.10
2022-08-21T08:32:00.579Z,2.70
2022-08-21T08:32:39.584Z,3.40
2022-08-21T08:33:39.558Z,3.20
2022-08-21T08:34:41.446Z,4.00
2022-08-21T08:35:39.558Z,3.30
2022-08-21T08:36:42.415Z,3.00
2022-08-21T08:37:41.324Z,3.40
2022-08-21T08:38:54.445Z,3.30
2022-08-21T08:39:39.748Z,2.90
2022-08-21T08:40:46.419Z,3.00
2022-08-21T08:41:39.472Z,3.20
2022-08-21T08:42:41.517Z,2.80
2022-08-21T08:43:39.469Z,3.40
2022-08-21T08:44:42.424Z,2.70
2022-08-21T08:45:39.428Z,3.00
2022-08-21T08:46:39.438Z,2.90
2022-08-21T08:47:39.406Z,2.90
2022-08-21T08:48:39.416Z,2.50
2022-08-21T08:49:39.393Z,2.90
2022-08-21T08:50:39.365Z,3.00
2022-08-21T08:51:41.415Z,2.70
2022-08-21T08:52:39.922Z,2.90
2022-08-21T08:53:39.344Z,3.00
2022-08-21T08:54:39.362Z,2.50
2022-08-21T08:55:41.919Z,2.90
2022-08-21T08:56:39.313Z,2.80
2022-08-21T08:57:41.916Z,2.80
2022-08-21T08:58:39.287Z,2.40
2022-08-21T08:59:39.275Z,2.60
2022-08-21T09:00:39.286Z,2.30
2022-08-21T09:01:39.444Z,2.30
2022-08-21T09:02:39.234Z,2.60
2022-08-21T09:03:41.932Z,2.60
2022-08-21T09:04:39.479Z,2.20
2022-08-21T09:05:40.455Z,2.10
2022-08-21T09:06:41.925Z,2.20
2022-08-21T09:07:41.924Z,2.70
2022-08-21T09:08:39.919Z,2.20
2022-08-21T09:09:39.159Z,2.20
2022-08-21T09:10:39.145Z,2.10
2022-08-21T09:11:39.165Z,2.20
2022-08-21T09:12:39.926Z,2.00
2022-08-21T09:13:39.139Z,2.00
2022-08-21T09:14:39.107Z,1.90
2022-08-21T09:15:43.982Z,2.00
2022-08-21T09:16:53.925Z,1.50
2022-08-21T09:17:39.124Z,1.50
2022-08-21T09:18:39.929Z,1.60
2022-08-21T09:19:39.056Z,1.90
2022-08-21T09:20:45.919Z,1.40
2022-08-21T09:21:39.029Z,1.40
2022-08-21T09:22:39.013Z,1.50
2022-08-21T09:23:39.036Z,1.40
2022-08-21T09:24:38.992Z,1.70
2022-08-21T09:25:38.995Z,1.60
2022-08-21T09:26:39.036Z,1.30
2022-08-21T09:27:38.994Z,1.80
2022-08-21T09:28:38.956Z,1.50
2022-08-21T09:29:39.935Z,1.40
2022-08-21T09:30:38.929Z,1.20
2022-08-21T09:31:39.442Z,1.70
2022-08-21T09:32:38.955Z,1.30
2022-08-21T09:33:41.445Z,1.20
2022-08-21T09:34:38.891Z,1.10
2022-08-21T09:35:41.441Z,1.10
2022-08-21T09:36:38.886Z,1.20
2022-08-21T09:37:38.859Z,1.10
2022-08-21T09:38:39.445Z,1.30
2022-08-21T09:39:40.233Z,0.90
2022-08-21T09:40:39.035Z,1.00
2022-08-21T09:41:38.818Z,1.20
2022-08-21T09:42:38.799Z,1.00
2022-08-21T09:43:53.433Z,1.20
2022-08-21T09:44:38.819Z,1.50
2022-08-21T09:45:53.442Z,1.40
2022-08-21T09:47:01.871Z,1.10
2022-08-21T09:47:38.753Z,1.30
2022-08-21T09:48:38.750Z,1.10
2022-08-21T09:49:38.729Z,1.50
2022-08-21T09:50:39.017Z,1.00
2022-08-21T09:51:41.449Z,1.10
2022-08-21T09:52:38.694Z,1.10
2022-08-21T09:53:41.485Z,1.00
2022-08-21T09:54:38.672Z,1.00
2022-08-21T09:55:38.687Z,1.00
2022-08-21T09:56:38.978Z,1.00
2022-08-21T09:57:38.645Z,1.20
2022-08-21T09:58:39.653Z,1.20
2022-08-21T09:59:38.637Z,1.40
2022-08-21T10:00:38.666Z,1.10
2022-08-21T10:01:41.443Z,1.30
2022-08-21T10:02:39.460Z,1.20
2022-08-21T10:03:38.618Z,1.20
2022-08-21T10:04:39.633Z,1.20
2022-08-21T10:05:38.564Z,1.10
2022-08-21T10:06:39.477Z,1.20
2022-08-21T10:07:38.984Z,0.90
2022-08-21T10:08:38.519Z,1.50
2022-08-21T10:09:41.439Z,1.20
2022-08-21T10:10:39.446Z,1.30
2022-08-21T10:11:38.499Z,1.20
2022-08-21T10:12:38.483Z,1.20
2022-08-21T10:13:38.484Z,0.90
2022-08-21T10:14:40.011Z,1.00
2022-08-21T10:15:39.448Z,1.10
2022-08-21T10:16:38.494Z,1.40
2022-08-21T10:17:59.942Z,1.40
2022-08-21T10:18:38.425Z,1.50
2022-08-21T10:19:44.950Z,1.10
2022-08-21T10:20:38.409Z,1.20
2022-08-21T10:21:38.943Z,1.70
2022-08-21T10:22:38.369Z,1.00
2022-08-21T10:23:44.469Z,1.00
2022-08-21T10:24:38.343Z,0.90
2022-08-21T10:25:52.059Z,1.20
2022-08-21T10:26:46.956Z,0.90
2022-08-21T10:27:38.311Z,1.20
2022-08-21T10:28:38.495Z,1.20
2022-08-21T10:29:38.938Z,1.00
2022-08-21T10:30:38.950Z,1.00
2022-08-21T10:31:38.940Z,1.10
2022-08-21T10:32:38.476Z,1.10
2022-08-21T10:33:38.241Z,0.90
2022-08-21T10:34:38.247Z,0.80
2022-08-21T10:35:38.235Z,0.70
2022-08-21T10:36:38.521Z,0.70
2022-08-21T10:37:38.208Z,0.80
2022-08-21T10:38:55.286Z,0.90
2022-08-21T10:39:39.240Z,0.80
2022-08-21T10:40:38.172Z,1.00
2022-08-21T10:41:38.472Z,1.00
2022-08-21T10:42:39.213Z,1.00
2022-08-21T10:43:44.945Z,0.90
2022-08-21T10:44:39.987Z,1.00
2022-08-21T10:45:38.140Z,1.20
2022-08-21T10:46:39.147Z,1.10
2022-08-21T10:47:38.940Z,0.80
2022-08-21T10:48:38.095Z,0.70
2022-08-21T10:49:38.074Z,0.90
2022-08-21T10:50:38.087Z,0.80
2022-08-21T10:51:38.080Z,0.70
2022-08-21T10:52:39.083Z,0.90
2022-08-21T10:53:42.502Z,0.80
2022-08-21T10:54:39.077Z,0.90
2022-08-21T10:55:38.014Z,0.80
2022-08-21T10:56:38.031Z,1.00
2022-08-21T10:57:38.008Z,0.90
2022-08-21T10:58:37.978Z,0.70
2022-08-21T10:59:43.465Z,0.90
2022-08-21T11:00:37.984Z,1.00
2022-08-21T11:01:38.991Z,1.10
2022-08-21T11:02:37.945Z,1.00
2022-08-21T11:03:38.440Z,0.80
2022-08-21T11:04:49.219Z,1.10
2022-08-21T11:05:38.984Z,0.70
2022-08-21T11:06:37.910Z,0.70
2022-08-21T11:07:37.936Z,0.60
2022-08-21T11:08:37.884Z,1.00
2022-08-21T11:09:37.909Z,0.70
2022-08-21T11:10:40.833Z,1.00
2022-08-21T11:11:45.124Z,0.90
2022-08-21T11:12:39.459Z,0.90
2022-08-21T11:13:37.984Z,0.70
2022-08-21T11:14:37.844Z,0.80
2022-08-21T11:15:37.985Z,0.80
2022-08-21T11:16:52.455Z,0.80
2022-08-21T11:17:37.798Z,0.70
2022-08-21T11:18:37.794Z,0.80
2022-08-21T11:19:37.751Z,0.60
2022-08-21T11:20:37.990Z,1.00
2022-08-21T11:21:38.463Z,0.70
2022-08-21T11:22:38.760Z,0.70
2022-08-21T11:23:58.714Z,0.80
2022-08-21T11:24:37.730Z,1.00
2022-08-21T11:25:37.696Z,0.60
2022-08-21T11:26:37.684Z,0.80
2022-08-21T11:27:44.458Z,0.50
2022-08-21T11:28:37.677Z,0.70
2022-08-21T11:29:37.657Z,0.60
2022-08-21T11:30:38.462Z,0.70
2022-08-21T11:31:37.624Z,0.70
2022-08-21T11:32:37.646Z,0.70
2022-08-21T11:33:44.454Z,0.70
2022-08-21T11:34:59.468Z,0.70
2022-08-21T11:35:37.954Z,0.70
2022-08-21T11:36:38.454Z,0.60
2022-08-21T11:37:37.994Z,0.60
2022-08-21T11:38:37.561Z,0.70
2022-08-21T11:39:37.596Z,0.60
2022-08-21T11:40:37.988Z,0.70
2022-08-21T11:41:37.525Z,0.80
2022-08-21T11:42:37.528Z,0.60
2022-08-21T11:43:37.510Z,0.80
2022-08-21T11:44:37.485Z,0.90
2022-08-21T11:45:38.461Z,0.90
2022-08-21T11:46:37.472Z,0.60
2022-08-21T11:47:37.478Z,0.70
2022-08-21T11:48:37.523Z,0.60
2022-08-21T11:49:37.432Z,0.60
2022-08-21T11:50:37.426Z,0.70
2022-08-21T11:51:43.985Z,0.90
2022-08-21T11:52:37.429Z,0.60
2022-08-21T11:53:37.464Z,0.60
2022-08-21T11:54:37.419Z,0.50
2022-08-21T11:55:37.391Z,0.70
2022-08-21T11:56:37.355Z,0.80
2022-08-21T11:57:37.365Z,0.70
2022-08-21T11:58:37.356Z,0.90
2022-08-21T11:59:40.744Z,0.60
2022-08-21T12:00:37.319Z,0.80
2022-08-21T12:01:38.436Z,0.60
2022-08-21T12:02:37.293Z,0.70
2022-08-21T12:03:37.308Z,0.70
2022-08-21T12:04:37.289Z,0.80
2022-08-21T12:05:37.315Z,0.60
2022-08-21T12:06:37.268Z,0.50
2022-08-21T12:07:37.256Z,0.60
2022-08-21T12:08:37.228Z,0.40
2022-08-21T12:09:37.251Z,0.30
2022-08-21T12:10:37.215Z,0.60
2022-08-21T12:11:37.207Z,0.40
2022-08-21T12:12:37.188Z,0.50
2022-08-21T12:13:42.102Z,0.40
2022-08-21T12:14:38.172Z,0.80
2022-08-21T12:15:37.162Z,0.40
2022-08-21T12:16:37.173Z,0.60
2022-08-21T12:17:37.956Z,0.60
2022-08-21T12:18:38.018Z,0.50
2022-08-21T12:19:37.966Z,0.50
2022-08-21T12:20:37.110Z,0.60
2022-08-21T12:21:37.085Z,0.60
2022-08-21T12:22:37.092Z,0.60
2022-08-21T12:23:37.994Z,0.60
2022-08-21T12:24:37.094Z,0.60
2022-08-21T12:25:37.058Z,0.60
2022-08-21T12:26:37.044Z,0.70
2022-08-21T12:27:37.025Z,0.60
2022-08-21T12:28:37.994Z,0.50
2022-08-21T12:29:37.013Z,0.70
2022-08-21T12:30:36.983Z,0.60
2022-08-21T12:31:37.025Z,0.60
2022-08-21T12:32:36.969Z,0.40
2022-08-21T12:33:37.483Z,0.50
2022-08-21T12:34:36.951Z,0.60
2022-08-21T12:35:37.480Z,0.70
2022-08-21T12:36:38.840Z,0.60
2022-08-21T12:37:36.946Z,0.40
2022-08-21T12:38:36.930Z,0.70
2022-08-21T12:39:36.935Z,0.60
2022-08-21T12:40:36.896Z,0.80
2022-08-21T12:41:36.955Z,0.70
2022-08-21T12:42:36.863Z,0.60
2022-08-21T12:43:36.960Z,0.50
2022-08-21T12:44:37.478Z,0.60
2022-08-21T12:45:36.852Z,0.40
2022-08-21T12:46:37.485Z,0.40
2022-08-21T12:47:36.848Z,0.40
2022-08-21T12:48:36.800Z,0.30
2022-08-21T12:49:36.822Z,0.40
2022-08-21T12:50:36.778Z,0.50
2022-08-21T12:51:36.777Z,0.80
2022-08-21T12:52:39.388Z,0.50
2022-08-21T12:53:36.753Z,0.50
2022-08-21T12:54:36.759Z,0.60
2022-08-21T12:55:36.728Z,0.50
2022-08-21T12:56:36.712Z,0.40
2022-08-21T12:57:36.924Z,0.40
2022-08-21T12:58:36.719Z,0.40
2022-08-21T12:59:36.895Z,0.30
2022-08-21T13:00:36.675Z,0.50
2022-08-21T13:01:41.311Z,0.40
2022-08-21T13:02:37.675Z,0.50
2022-08-21T13:03:36.708Z,0.30
2022-08-21T13:04:36.679Z,0.30
2022-08-21T13:05:36.667Z,0.50
2022-08-21T13:06:43.496Z,0.40
2022-08-21T13:07:36.603Z,0.40
2022-08-21T13:08:40.764Z,0.30
2022-08-21T13:09:37.641Z,0.50
2022-08-21T13:10:36.570Z,0.40
2022-08-21T13:11:36.557Z,0.50
2022-08-21T13:12:38.480Z,0.40
2022-08-21T13:13:37.494Z,0.50
2022-08-21T13:14:45.886Z,0.30
2022-08-21T13:15:36.561Z,0.60
2022-08-21T13:16:36.503Z,0.50
2022-08-21T13:17:43.493Z,0.40
2022-08-21T13:18:36.495Z,0.90